Time;durP1;ratioP1;P1;durP2;ratioP2;P2;SDS_P1;SDS_P2;PMS_P1;PMS_P2;Temp;Humidity;BMP_temperature;BMP_pressure;BME280_temperature;BME280_humidity;BME280_pressure;Samples;Min_cycle;Max_cycle;Signal;HPM_P1;HPM_P2
2022/03/25 00:00:21;;;;;;;10.30;4.57;;;;;;;;;;20939028;28;20213;-63
2022/03/25 00:10:25;;;;;;;7.67;4.40;;;;;;;;;;20938515;28;20217;-64
2022/03/25 00:20:27;;;;;;;6.87;4.70;;;;;;;;;;20955565;28;20680;-64
2022/03/25 00:30:30;;;;;;;6.80;3.80;;;;;;;;;;20969742;28;20471;-63
2022/03/25 00:40:32;;;;;;;6.73;4.20;;;;;;;;;;20952875;28;20227;-64
2022/03/25 00:50:35;;;;;;;6.60;4.63;;;11.50;99.90;;;;;;20952523;28;20590;-64
2022/03/25 01:00:38;;;;;;;9.53;4.70;;;;;;;;;;20968216;28;20730;-64
2022/03/25 01:10:40;;;;;;;6.13;4.23;;;;;;;;;;20950514;28;20285;-64
2022/03/25 01:20:42;;;;;;;7.10;4.07;;;;;;;;;;20947242;28;20274;-63
2022/03/25 01:30:44;;;;;;;8.77;4.63;;;;;;;;;;20937792;28;20220;-64
2022/03/25 01:40:45;;;;;;;5.03;3.60;;;;;;;;;;20964683;28;20781;-64
2022/03/25 01:50:48;;;;;;;7.10;4.00;;;;;;;;;;20947436;28;20213;-63
2022/03/25 02:00:51;;;;;;;6.97;4.00;;;11.00;99.90;;;;;;20946421;28;20205;-64
2022/03/25 02:10:53;;;;;;;7.30;4.30;;;;;;;;;;20929747;28;20213;-64
2022/03/25 02:20:59;;;;;;;6.33;4.03;;;;;;;;;;20961540;28;20222;-63
2022/03/25 02:31:01;;;;;;;7.40;3.67;;;;;;;;;;20942775;28;20708;-64
2022/03/25 02:41:03;;;;;;;6.40;3.60;;;;;;;;;;20939421;28;20581;-64
2022/03/25 02:51:07;;;;;;;10.70;3.90;;;;;;;;;;20942167;28;20290;-64
2022/03/25 03:01:08;;;;;;;6.97;4.10;;;;;;;;;;20941493;28;20278;-64
2022/03/25 03:11:11;;;;;;;5.33;3.47;;;;;;;;;;20957095;28;20290;-63
2022/03/25 03:21:13;;;;;;;7.10;4.13;;;;;;;;;;20940629;28;20209;-63
2022/03/25 03:31:16;;;;;;;6.23;3.57;;;;;;;;;;20939776;28;20247;-63
2022/03/25 03:41:18;;;;;;;5.50;3.70;;;;;;;;;;20939180;28;20583;-64
2022/03/25 03:51:20;;;;;;;6.87;4.00;;;;;;;;;;20938423;28;20276;-64
2022/03/25 04:01:21;;;;;;;6.27;3.90;;;;;;;;;;20955066;28;20224;-64
2022/03/25 04:11:23;;;;;;;5.57;3.47;;;9.30;99.90;;;;;;20972645;22;20287;-75
2022/03/25 04:21:26;;;;;;;6.80;4.00;;;;;;;;;;20986010;28;20768;-79
2022/03/25 04:31:28;;;;;;;6.70;4.33;;;;;;;;;;20962847;28;20271;-75
2022/03/25 04:41:29;;;;;;;9.47;4.23;;;;;;;;;;20951346;28;20586;-75
2022/03/25 04:51:31;;;;;;;6.87;3.70;;;;;;;;;;20978844;28;20282;-74
2022/03/25 05:01:33;;;;;;;7.97;3.97;;;;;;;;;;20980450;28;20213;-75
2022/03/25 05:11:34;;;;;;;5.37;4.00;;;;;;;;;;20991152;28;20711;-76
2022/03/25 05:21:37;;;;;;;9.20;4.80;;;8.40;99.90;;;;;;20997115;28;20684;-75
2022/03/25 05:31:39;;;;;;;7.50;3.40;;;;;;;;;;20962004;28;20217;-77
2022/03/25 05:41:42;;;;;;;5.33;3.57;;;8.30;99.90;;;;;;20996290;28;20225;-76
2022/03/25 05:51:43;;;;;;;6.83;3.87;;;;;;;;;;20978076;28;20270;-78
2022/03/25 06:01:45;;;;;;;17.27;4.63;;;;;;;;;;20978030;28;20275;-77
2022/03/25 06:11:47;;;;;;;6.30;3.67;;;8.30;99.90;;;;;;20976583;28;20221;-76
2022/03/25 06:21:49;;;;;;;6.33;3.90;;;;;;;;;;20975845;28;20254;-77
2022/03/25 06:31:51;;;;;;;7.70;3.80;;;;;;;;;;20973290;28;20308;-77
2022/03/25 06:41:52;;;;;;;6.10;3.87;;;;;;;;;;20991691;28;20208;-76
2022/03/25 06:51:54;;;;;;;11.33;4.93;;;;;;;;;;20951077;28;20278;-76
2022/03/25 07:01:56;;;;;;;7.40;4.53;;;9.40;99.90;;;;;;20982878;28;20217;-76
2022/03/25 07:11:59;;;;;;;10.27;4.47;;;9.70;99.90;;;;;;20941020;28;20270;-75
2022/03/25 07:22:01;;;;;;;9.33;5.03;;;;;;;;;;20963620;28;20201;-76
2022/03/25 07:32:04;;;;;;;8.47;5.10;;;;;;;;;;20985226;28;20213;-74
2022/03/25 07:42:06;;;;;;;7.50;4.93;;;;;;;;;;20982871;28;20228;-74
2022/03/25 07:52:08;;;;;;;9.07;5.50;;;11.20;99.90;;;;;;20967943;28;20278;-74
2022/03/25 08:02:11;;;;;;;11.87;6.13;;;;;;;;;;20962651;28;20209;-75
2022/03/25 08:12:13;;;;;;;9.50;5.80;;;;;;;;;;20985715;28;20233;-75
2022/03/25 08:22:15;;;;;;;9.20;5.80;;;;;;;;;;20962571;28;20209;-74
2022/03/25 08:32:17;;;;;;;10.73;6.63;;;;;;;;;;20984229;28;20220;-75
2022/03/25 08:42:18;;;;;;;10.10;6.27;;;;;;;;;;20957494;28;20205;-75
2022/03/25 08:52:23;;;;;;;9.73;6.50;;;;;;;;;;20916986;28;20218;-75
2022/03/25 09:02:25;;;;;;;12.53;6.57;;;;;;;;;;20898609;28;20272;-74
2022/03/25 09:12:27;;;;;;;10.77;6.37;;;;;;;;;;20914454;28;20401;-75
2022/03/25 09:22:29;;;;;;;11.73;6.47;;;;;;;;;;20969857;28;20602;-75
2022/03/25 09:32:31;;;;;;;12.13;7.27;;;;;;;;;;20963064;28;20258;-75
2022/03/25 09:42:36;;;;;;;12.10;6.60;;;15.00;99.90;;;;;;20976885;28;20752;-75
2022/03/25 09:52:39;;;;;;;9.53;6.00;;;14.90;99.90;;;;;;20993161;28;20282;-75
2022/03/25 10:02:41;;;;;;;11.80;7.37;;;;;;;;;;20959944;28;20270;-75
2022/03/25 10:12:51;;;;;;;12.43;6.87;;;15.80;99.90;;;;;;20955751;28;20213;-73
2022/03/25 10:23:00;;;;;;;14.23;7.07;;;;;;;;;;20965432;28;20220;-74
2022/03/25 10:33:12;;;;;;;13.00;7.50;;;;;;;;;;20980917;28;20243;-76
2022/03/25 10:43:15;;;;;;;14.20;7.83;;;;;;;;;;20989508;28;20696;-75
2022/03/25 10:53:17;;;;;;;11.57;6.90;;;;;;;;;;20991193;28;20217;-75
2022/03/25 11:03:18;;;;;;;12.33;7.30;;;16.20;96.60;;;;;;20970818;28;20224;-74
2022/03/25 11:13:22;;;;;;;11.13;7.40;;;;;;;;;;20965415;28;20220;-76
2022/03/25 11:23:31;;;;;;;12.73;7.23;;;17.60;99.90;;;;;;20973164;28;20201;-74
2022/03/25 11:33:53;;;;;;;12.37;8.03;;;;;;;;;;20939523;28;20209;-75
2022/03/25 11:44:13;;;;;;;14.03;8.47;;;;;;;;;;20988640;28;20181;-74
2022/03/25 11:54:34;;;;;;;10.47;7.30;;;;;;;;;;20971632;28;20221;-75
2022/03/25 12:04:35;;;;;;;11.83;8.10;;;;;;;;;;20968161;28;20242;-75
2022/03/25 12:15:06;;;;;;;13.23;8.00;;;18.50;97.50;;;;;;20990889;28;20589;-75
2022/03/25 12:25:10;;;;;;;11.40;8.00;;;;;;;;;;21005697;28;20219;-75
2022/03/25 12:35:12;;;;;;;12.00;7.83;;;;;;;;;;20956957;28;20274;-74
2022/03/25 12:45:13;;;;;;;11.83;8.30;;;;;;;;;;20999751;28;20701;-73
2022/03/25 12:55:16;;;;;;;15.33;9.27;;;;;;;;;;21002234;28;20213;-74
2022/03/25 13:05:18;;;;;;;15.03;8.70;;;18.90;88.80;;;;;;20983771;28;20653;-74
2022/03/25 13:15:34;;;;;;;13.17;8.57;;;;;;;;;;21000771;28;20251;-73
2022/03/25 13:25:42;;;;;;;12.57;8.63;;;;;;;;;;20996858;28;20743;-73
2022/03/25 13:35:48;;;;;;;12.53;8.33;;;;;;;;;;20981305;28;20274;-72
2022/03/25 13:46:04;;;;;;;13.93;9.63;;;;;;;;;;20982205;28;20270;-74
2022/03/25 13:56:22;;;;;;;13.43;9.03;;;19.60;96.00;;;;;;20978049;28;20287;-74
2022/03/25 14:06:31;;;;;;;13.70;8.53;;;;;;;;;;20976503;28;20221;-75
2022/03/25 14:16:33;;;;;;;13.60;9.00;;;;;;;;;;20989566;28;20609;-75
2022/03/25 14:26:35;;;;;;;14.80;9.00;;;;;;;;;;20970174;28;20221;-75
2022/03/25 14:36:37;;;;;;;12.23;7.90;;;;;;;;;;20985812;28;20220;-74
2022/03/25 14:46:42;;;;;;;13.00;8.33;;;19.50;93.00;;;;;;20990701;28;20235;-75
2022/03/25 14:56:44;;;;;;;13.43;8.03;;;;;;;;;;20962742;28;20440;-74
2022/03/25 15:06:48;;;;;;;12.80;8.07;;;;;;;;;;20970455;28;20237;-76
2022/03/25 15:16:50;;;;;;;13.07;8.37;;;;;;;;;;20962555;28;20217;-74
2022/03/25 15:26:51;;;;;;;11.20;8.10;;;;;;;;;;20978605;28;20197;-74
2022/03/25 15:37:00;;;;;;;10.87;7.37;;;;;;;;;;20981242;28;20209;-74
2022/03/25 15:47:03;;;;;;;12.10;7.10;;;;;;;;;;20957761;28;20239;-75
2022/03/25 15:57:05;;;;;;;9.10;6.30;;;;;;;;;;20952258;28;20296;-74
2022/03/25 16:07:08;;;;;;;10.17;5.80;;;;;;;;;;20979962;28;20324;-74
2022/03/25 16:17:10;;;;;;;11.43;6.13;;;;;;;;;;20982676;28;20252;-75
2022/03/25 16:27:13;;;;;;;8.57;5.30;;;;;;;;;;20969322;28;20206;-76
2022/03/25 16:37:17;;;;;;;8.57;5.87;;;;;;;;;;20938346;28;20278;-74
2022/03/25 16:47:21;;;;;;;9.20;4.97;;;;;;;;;;20984523;22;20295;-66
2022/03/25 16:57:23;;;;;;;7.47;5.23;;;;;;;;;;20931869;28;20221;-65
2022/03/25 17:07:25;;;;;;;7.70;4.90;;;;;;;;;;20933295;28;20270;-65
2022/03/25 17:17:27;;;;;;;7.97;5.10;;;;;;;;;;20977183;28;20534;-65
2022/03/25 17:27:29;;;;;;;9.10;4.63;;;;;;;;;;21011398;28;20414;-65
2022/03/25 17:37:32;;;;;;;8.37;4.77;;;;;;;;;;21010261;28;20208;-65
2022/03/25 17:47:34;;;;;;;9.63;5.47;;;;;;;;;;20925303;28;20217;-65
2022/03/25 17:57:35;;;;;;;9.97;5.23;;;;;;;;;;20926363;28;20282;-65
2022/03/25 18:07:37;;;;;;;11.97;7.33;;;;;;;;;;20962931;28;21003;-65
2022/03/25 18:17:39;;;;;;;10.90;6.23;;;;;;;;;;20911264;28;20209;-65
2022/03/25 18:27:42;;;;;;;10.93;6.47;;;;;;;;;;20933506;28;20589;-65
2022/03/25 18:37:44;;;;;;;11.83;7.07;;;17.10;99.60;;;;;;20931543;28;20672;-65
2022/03/25 18:47:47;;;;;;;13.20;7.93;;;;;;;;;;20914786;28;20237;-65
2022/03/25 18:57:53;;;;;;;18.40;7.30;;;;;;;;;;20962754;28;20595;-65
2022/03/25 19:07:57;;;;;;;12.57;7.20;;;;;;;;;;21012089;28;20286;-65
2022/03/25 19:17:59;;;;;;;11.53;6.70;;;;;;;;;;21036939;28;20261;-65
2022/03/25 19:28:01;;;;;;;8.87;6.37;;;;;;;;;;21022125;28;20216;-65
2022/03/25 19:38:04;;;;;;;12.37;7.13;;;;;;;;;;21038097;28;20200;-65
2022/03/25 19:48:06;;;;;;;8.93;6.13;;;;;;;;;;20984620;28;20221;-65
2022/03/25 19:58:08;;;;;;;11.73;6.70;;;15.20;99.90;;;;;;20937177;28;20209;-65
2022/03/25 20:08:10;;;;;;;9.57;6.37;;;;;;;;;;20934101;28;20758;-65
2022/03/25 20:18:13;;;;;;;12.13;6.10;;;;;;;;;;20940154;28;20267;-66
2022/03/25 20:28:15;;;;;;;9.43;6.50;;;;;;;;;;20885311;28;20217;-65
2022/03/25 20:38:16;;;;;;;11.73;6.37;;;;;;;;;;20914459;28;20684;-65
2022/03/25 20:48:18;;;;;;;10.57;5.83;;;;;;;;;;20939199;28;20225;-66
2022/03/25 20:58:20;;;;;;;9.67;6.27;;;;;;;;;;20963011;28;20225;-65
2022/03/25 21:08:26;;;;;;;10.50;6.53;;;;;;;;;;21002874;28;20632;-65
2022/03/25 21:18:28;;;;;;;8.80;5.87;;;14.20;99.90;;;;;;21043431;28;20716;-65
2022/03/25 21:28:30;;;;;;;9.70;5.90;;;;;;;;;;21013286;28;20816;-65
2022/03/25 21:38:32;;;;;;;9.40;5.83;;;;;;;;;;21022215;28;20337;-66
2022/03/25 21:48:35;;;;;;;10.17;6.27;;;;;;;;;;21038440;28;20323;-65
2022/03/25 21:58:36;;;;;;;10.87;6.07;;;;;;;;;;21042460;28;20680;-65
2022/03/25 22:08:39;;;;;;;7.43;5.00;;;;;;;;;;21044818;28;20573;-65
2022/03/25 22:18:41;;;;;;;9.63;5.20;;;;;;;;;;20991757;28;20235;-65
2022/03/25 22:28:43;;;;;;;8.33;4.90;;;;;;;;;;20962010;28;20217;-65
2022/03/25 22:38:44;;;;;;;7.53;4.70;;;;;;;;;;20918089;28;20262;-64
2022/03/25 22:48:46;;;;;;;8.23;5.03;;;;;;;;;;20974138;22;20229;-65
2022/03/25 22:58:48;;;;;;;7.77;4.80;;;;;;;;;;20957513;28;20209;-65
2022/03/25 23:08:50;;;;;;;8.47;4.60;;;13.30;99.90;;;;;;20974983;28;20213;-65
2022/03/25 23:18:53;;;;;;;7.30;4.20;;;;;;;;;;20974230;28;20221;-67
2022/03/25 23:28:55;;;;;;;7.97;3.93;;;;;;;;;;20972962;28;20217;-66
2022/03/25 23:38:58;;;;;;;6.83;3.60;;;;;;;;;;20987238;28;20608;-66
2022/03/25 23:49:00;;;;;;;6.17;3.67;;;;;;;;;;20956251;28;20762;-66
2022/03/25 23:59:02;;;;;;;8.50;3.60;;;;;;;;;;20956264;28;20209;-66
